createdAt,value
2022-11-23T00:00:44.902Z,85.06
2022-11-23T00:03:18.120Z,85.16
2022-11-23T00:05:51.185Z,85.16
2022-11-23T00:08:23.917Z,85.19
2022-11-23T00:11:00.343Z,85.21
2022-11-23T00:13:35.255Z,85.19
2022-11-23T00:16:09.868Z,85.07
2022-11-23T00:18:43.005Z,85.10
2022-11-23T00:21:18.006Z,85.01
2022-11-23T00:23:51.532Z,84.98
2022-11-23T00:26:24.795Z,84.98
2022-11-23T00:28:58.129Z,85.04
2022-11-23T00:31:32.168Z,85.02
2022-11-23T00:34:05.430Z,84.98
2022-11-23T00:36:38.635Z,85.01
2022-11-23T00:39:11.732Z,84.95
2022-11-23T00:41:46.472Z,84.95
2022-11-23T00:44:19.715Z,84.86
2022-11-23T00:46:52.839Z,84.85
2022-11-23T00:49:25.894Z,84.91
2022-11-23T00:51:59.407Z,85.04
2022-11-23T00:54:32.476Z,85.02
2022-11-23T00:57:05.992Z,85.06
2022-11-23T00:59:38.876Z,84.98
2022-11-23T01:02:12.044Z,84.99
2022-11-23T01:04:45.260Z,85.09
2022-11-23T01:07:18.546Z,85.07
2022-11-23T01:09:51.862Z,85.12
2022-11-23T01:12:24.902Z,85.11
2022-11-23T01:14:58.174Z,85.04
2022-11-23T01:17:31.340Z,85.08
2022-11-23T01:20:04.723Z,85.14
2022-11-23T01:22:37.826Z,85.14
2022-11-23T01:25:11.510Z,85.12
2022-11-23T01:27:44.587Z,85.10
2022-11-23T01:30:18.717Z,85.14
2022-11-23T01:32:51.756Z,85.14
2022-11-23T01:35:24.841Z,85.16
2022-11-23T01:37:58.136Z,85.12
2022-11-23T01:40:31.469Z,85.16
2022-11-23T01:43:06.279Z,85.19
2022-11-23T01:45:42.291Z,85.15
2022-11-23T01:48:18.718Z,85.19
2022-11-23T01:50:53.704Z,85.20
2022-11-23T01:53:28.947Z,85.19
2022-11-23T01:56:04.318Z,85.22
2022-11-23T01:58:40.205Z,85.32
2022-11-23T02:01:14.488Z,85.31
2022-11-23T02:03:49.753Z,85.28
2022-11-23T02:06:24.478Z,85.33
2022-11-23T02:08:58.983Z,85.30
2022-11-23T02:11:32.444Z,85.28
2022-11-23T02:14:05.933Z,85.26
2022-11-23T02:16:40.083Z,85.30
2022-11-23T02:19:18.892Z,85.30
2022-11-23T02:21:54.200Z,85.27
2022-11-23T02:24:30.132Z,85.26
2022-11-23T02:27:03.681Z,85.33
2022-11-23T02:29:38.456Z,85.28
2022-11-23T02:32:11.596Z,85.30
2022-11-23T02:34:44.685Z,85.27
2022-11-23T02:37:19.540Z,85.23
2022-11-23T02:39:55.746Z,85.13
2022-11-23T02:42:31.088Z,85.21
2022-11-23T02:45:07.798Z,85.32
2022-11-23T02:47:42.334Z,85.33
2022-11-23T02:50:15.994Z,85.30
2022-11-23T02:52:49.107Z,85.34
2022-11-23T02:55:22.502Z,85.34
2022-11-23T02:57:55.606Z,85.38
2022-11-23T03:00:28.667Z,85.42
2022-11-23T03:03:04.964Z,85.44
2022-11-23T03:05:38.611Z,85.40
2022-11-23T03:08:11.822Z,85.31
2022-11-23T03:10:45.013Z,85.28
2022-11-23T03:13:18.071Z,85.26
2022-11-23T03:15:51.507Z,85.30
2022-11-23T03:18:26.811Z,85.41
2022-11-23T03:21:05.610Z,85.41
2022-11-23T03:23:40.541Z,85.45
2022-11-23T03:26:14.145Z,85.38
2022-11-23T03:28:53.296Z,85.48
2022-11-23T03:31:26.825Z,85.51
2022-11-23T03:34:00.269Z,85.54
2022-11-23T03:36:35.397Z,85.59
2022-11-23T03:39:09.234Z,85.53
2022-11-23T03:41:44.221Z,85.59
2022-11-23T03:44:17.553Z,85.50
2022-11-23T03:46:51.572Z,85.58
2022-11-23T03:49:24.654Z,85.58
2022-11-23T03:51:58.488Z,85.62
2022-11-23T03:54:32.823Z,85.66
2022-11-23T03:57:06.249Z,85.63
2022-11-23T03:59:39.717Z,85.59
2022-11-23T04:02:13.391Z,85.55
2022-11-23T04:04:48.513Z,85.59
2022-11-23T04:07:30.667Z,85.58
2022-11-23T04:10:04.657Z,85.64
2022-11-23T04:12:39.623Z,85.62
2022-11-23T04:15:14.360Z,85.57
2022-11-23T04:17:48.532Z,85.62
2022-11-23T04:20:22.399Z,85.60
2022-11-23T04:22:56.111Z,85.51
2022-11-23T04:25:30.541Z,85.52
2022-11-23T04:28:04.787Z,85.53
2022-11-23T04:30:38.525Z,85.60
2022-11-23T04:33:12.521Z,85.59
2022-11-23T04:35:46.235Z,85.60
2022-11-23T04:38:19.937Z,85.54
2022-11-23T04:40:53.870Z,85.56
2022-11-23T04:43:27.296Z,85.67
2022-11-23T04:46:00.681Z,85.67
2022-11-23T04:48:35.286Z,85.72
2022-11-23T04:51:09.831Z,85.79
2022-11-23T04:53:44.190Z,85.69
2022-11-23T04:56:18.698Z,85.66
2022-11-23T04:58:53.659Z,85.66
2022-11-23T05:01:27.329Z,85.64
2022-11-23T05:04:19.388Z,85.62
2022-11-23T05:06:53.711Z,85.71
2022-11-23T05:09:28.469Z,85.65
2022-11-23T05:12:03.600Z,85.63
2022-11-23T05:14:37.389Z,85.54
2022-11-23T05:17:11.527Z,85.57
2022-11-23T05:19:49.068Z,85.41
2022-11-23T05:22:24.709Z,85.32
2022-11-23T05:24:59.005Z,85.26
2022-11-23T05:27:32.563Z,85.21
2022-11-23T05:30:07.638Z,85.14
2022-11-23T05:32:41.912Z,85.03
2022-11-23T05:35:15.892Z,84.91
2022-11-23T05:37:49.444Z,85.06
2022-11-23T05:40:23.179Z,85.04
2022-11-23T05:42:58.800Z,84.94
2022-11-23T05:45:32.511Z,84.83
2022-11-23T05:48:07.198Z,84.84
2022-11-23T05:50:50.715Z,84.84
2022-11-23T05:53:27.609Z,84.79
2022-11-23T05:56:03.796Z,84.79
2022-11-23T05:58:40.100Z,84.89
2022-11-23T06:01:15.536Z,84.79
2022-11-23T06:03:52.042Z,84.73
2022-11-23T06:06:27.188Z,84.74
2022-11-23T06:09:05.560Z,84.82
2022-11-23T06:11:42.472Z,84.84
2022-11-23T06:14:19.665Z,84.98
2022-11-23T06:16:54.462Z,85.02
2022-11-23T06:19:36.018Z,85.04
2022-11-23T06:22:10.208Z,85.05
2022-11-23T06:24:45.318Z,85.04
2022-11-23T06:27:23.440Z,85.12
2022-11-23T06:29:57.467Z,85.31
2022-11-23T06:32:31.833Z,85.39
2022-11-23T06:35:06.204Z,85.48
2022-11-23T06:37:41.555Z,85.47
2022-11-23T06:40:15.762Z,85.52
2022-11-23T06:42:49.630Z,85.63
2022-11-23T06:45:24.437Z,85.61
2022-11-23T06:47:59.507Z,85.56
2022-11-23T06:50:32.292Z,85.63
2022-11-23T06:53:05.499Z,85.70
2022-11-23T06:55:40.983Z,85.59
2022-11-23T06:58:14.450Z,85.60
2022-11-23T07:00:49.162Z,85.53
2022-11-23T07:03:25.800Z,85.59
2022-11-23T07:06:07.533Z,85.56
2022-11-23T07:08:43.226Z,85.54
2022-11-23T07:11:27.327Z,85.55
2022-11-23T07:14:00.940Z,85.58
2022-11-23T07:16:35.195Z,85.62
2022-11-23T07:19:08.994Z,85.67
2022-11-23T07:21:42.496Z,85.63
2022-11-23T07:24:17.451Z,85.66
2022-11-23T07:26:51.509Z,85.58
2022-11-23T07:29:25.433Z,85.49
2022-11-23T07:31:59.169Z,85.48
2022-11-23T07:34:32.869Z,85.52
2022-11-23T07:37:06.436Z,85.49
2022-11-23T07:39:56.738Z,85.48
2022-11-23T07:42:34.462Z,85.39
2022-11-23T07:44:51.171Z,85.46
2022-11-23T07:47:24.487Z,85.44
2022-11-23T07:49:58.065Z,85.40
2022-11-23T07:52:31.701Z,85.31
2022-11-23T07:55:05.586Z,85.42
2022-11-23T07:57:38.775Z,85.39
2022-11-23T08:00:19.046Z,85.14
2022-11-23T08:03:25.467Z,85.32
2022-11-23T08:05:28.124Z,85.36
2022-11-23T08:08:02.956Z,85.28
2022-11-23T08:10:43.493Z,85.33
2022-11-23T08:13:12.006Z,85.36
2022-11-23T08:15:50.186Z,85.31
2022-11-23T08:18:20.283Z,85.28
2022-11-23T08:20:53.999Z,85.40
2022-11-23T08:23:27.502Z,85.34
2022-11-23T08:26:02.576Z,85.40
2022-11-23T08:28:37.617Z,85.37
2022-11-23T08:31:12.771Z,85.47
2022-11-23T08:33:48.317Z,85.49
2022-11-23T08:36:21.698Z,85.48
2022-11-23T08:38:55.369Z,85.32
2022-11-23T08:41:28.804Z,85.31
2022-11-23T08:44:02.456Z,85.43
2022-11-23T08:46:36.189Z,85.45
2022-11-23T08:49:10.322Z,85.40
2022-11-23T08:51:49.733Z,85.42
2022-11-23T08:54:18.339Z,85.56
2022-11-23T08:56:52.248Z,85.55
2022-11-23T08:59:25.947Z,85.46
2022-11-23T09:02:00.805Z,85.36
2022-11-23T09:04:37.946Z,85.19
2022-11-23T09:07:11.778Z,85.29
2022-11-23T09:09:45.485Z,85.44
2022-11-23T09:12:19.303Z,85.50
2022-11-23T09:14:54.307Z,85.44
2022-11-23T09:17:28.498Z,85.47
2022-11-23T09:20:02.609Z,85.48
2022-11-23T09:22:36.556Z,85.51
2022-11-23T09:25:11.615Z,85.41
2022-11-23T09:27:45.439Z,85.39
2022-11-23T09:30:20.917Z,85.46
2022-11-23T09:32:56.498Z,85.41
2022-11-23T09:35:30.175Z,85.41
2022-11-23T09:38:04.185Z,85.31
2022-11-23T09:40:40.170Z,85.45
2022-11-23T09:43:33.091Z,85.48
2022-11-23T09:46:11.327Z,85.58
2022-11-23T09:48:54.199Z,85.67
2022-11-23T09:51:27.609Z,85.61
2022-11-23T09:54:03.952Z,85.53
2022-11-23T09:56:39.021Z,85.60
2022-11-23T09:59:17.767Z,85.54
2022-11-23T10:01:51.452Z,85.51
2022-11-23T10:04:26.372Z,85.39
2022-11-23T10:07:02.910Z,85.23
2022-11-23T10:09:39.941Z,85.17
2022-11-23T10:12:25.852Z,84.91
2022-11-23T10:15:05.641Z,84.97
2022-11-23T10:17:53.389Z,85.07
2022-11-23T10:20:41.775Z,84.94
2022-11-23T10:23:21.045Z,84.75
2022-11-23T10:25:55.117Z,84.71
2022-11-23T10:28:31.375Z,84.74
2022-11-23T10:31:08.160Z,84.63
2022-11-23T10:33:45.602Z,84.58
2022-11-23T10:36:19.113Z,84.50
2022-11-23T10:38:55.760Z,84.45
2022-11-23T10:41:31.048Z,84.63
2022-11-23T10:44:07.709Z,84.62
2022-11-23T10:46:42.715Z,84.60
2022-11-23T10:49:23.933Z,84.52
2022-11-23T10:51:59.423Z,84.43
2022-11-23T10:54:36.365Z,84.55
2022-11-23T10:57:26.046Z,84.44
2022-11-23T11:00:02.440Z,84.45
2022-11-23T11:02:43.430Z,84.59
2022-11-23T11:05:46.271Z,84.35
2022-11-23T11:08:03.479Z,84.35
2022-11-23T11:10:42.165Z,84.40
2022-11-23T11:13:30.078Z,84.54
2022-11-23T11:16:06.189Z,84.48
2022-11-23T11:18:40.634Z,84.58
2022-11-23T11:21:21.323Z,84.43
2022-11-23T11:23:57.484Z,84.52
2022-11-23T11:26:32.893Z,84.52
2022-11-23T11:29:10.230Z,84.49
2022-11-23T11:31:52.085Z,84.45
2022-11-23T11:34:29.302Z,84.51
2022-11-23T11:37:07.950Z,84.55
2022-11-23T11:39:45.658Z,84.41
2022-11-23T11:42:23.354Z,84.26
2022-11-23T11:44:59.036Z,84.44
2022-11-23T11:47:37.021Z,84.44
2022-11-23T11:50:15.046Z,84.39
2022-11-23T11:52:51.491Z,84.38
2022-11-23T11:55:27.875Z,84.17
2022-11-23T11:58:05.486Z,84.13
2022-11-23T12:00:44.892Z,84.09
2022-11-23T12:03:21.937Z,83.94
2022-11-23T12:05:57.700Z,83.56
2022-11-23T12:08:35.860Z,83.54
2022-11-23T12:11:12.008Z,83.57
2022-11-23T12:13:47.629Z,83.36
2022-11-23T12:16:26.467Z,83.38
2022-11-23T12:19:21.080Z,83.33
2022-11-23T12:22:32.195Z,83.17
2022-11-23T12:25:15.715Z,82.97
2022-11-23T12:27:55.815Z,82.90
2022-11-23T12:30:35.453Z,82.75
2022-11-23T12:36:49.170Z,82.89
2022-11-23T12:39:32.211Z,83.06
2022-11-23T12:42:08.806Z,83.08
2022-11-23T12:45:03.387Z,82.95
2022-11-23T12:47:44.146Z,83.07
2022-11-23T12:50:22.243Z,83.01
2022-11-23T12:53:20.620Z,82.83
2022-11-23T12:55:57.142Z,82.77
2022-11-23T12:58:31.913Z,82.71
2022-11-23T13:01:09.561Z,82.73
2022-11-23T13:03:51.355Z,82.89
2022-11-23T13:07:20.748Z,82.77
2022-11-23T13:09:41.104Z,82.54
2022-11-23T13:12:27.134Z,82.72
2022-11-23T13:15:05.189Z,82.66
2022-11-23T13:17:42.868Z,82.41
2022-11-23T13:20:40.522Z,82.33
2022-11-23T13:23:12.802Z,82.23
2022-11-23T13:25:47.269Z,82.53
2022-11-23T13:28:33.344Z,82.46
2022-11-23T13:31:25.359Z,82.26
2022-11-23T13:34:00.227Z,82.09
2022-11-23T13:37:11.740Z,82.27
2022-11-23T13:39:57.556Z,82.31
2022-11-23T13:42:33.892Z,82.33
2022-11-23T13:45:30.514Z,82.35
2022-11-23T13:48:48.876Z,82.33
2022-11-23T13:51:03.133Z,82.25
2022-11-23T13:53:39.126Z,82.23
2022-11-23T13:56:29.573Z,82.13
2022-11-23T13:59:28.790Z,81.90
2022-11-23T14:02:04.969Z,81.95
2022-11-23T14:04:40.149Z,81.94
2022-11-23T14:07:16.861Z,81.88
2022-11-23T14:09:53.530Z,81.60
2022-11-23T14:12:31.046Z,81.51
2022-11-23T14:15:07.953Z,81.70
2022-11-23T14:18:48.105Z,81.90
2022-11-23T14:24:25.852Z,81.92
2022-11-23T14:27:45.095Z,81.95
2022-11-23T14:30:10.247Z,81.99
2022-11-23T14:32:50.769Z,81.94
2022-11-23T14:35:29.104Z,81.59
2022-11-23T14:38:33.639Z,81.70
2022-11-23T14:41:10.766Z,81.73
2022-11-23T14:43:43.899Z,81.80
2022-11-23T14:46:22.864Z,82.01
2022-11-23T14:49:30.827Z,82.01
2022-11-23T14:52:20.630Z,81.76
2022-11-23T14:54:55.301Z,81.77
2022-11-23T14:57:31.570Z,81.73
2022-11-23T15:00:11.677Z,81.71
2022-11-23T15:02:44.873Z,81.63
2022-11-23T15:05:21.338Z,81.66
2022-11-23T15:07:57.873Z,81.81
2022-11-23T15:10:40.038Z,81.90
2022-11-23T15:13:27.826Z,81.78
2022-11-23T15:16:06.504Z,81.70
2022-11-23T15:18:41.348Z,81.69
2022-11-23T15:21:27.196Z,81.89
2022-11-23T15:24:00.278Z,81.86
2022-11-23T15:26:48.155Z,81.66
2022-11-23T15:29:34.485Z,81.54
2022-11-23T15:32:33.887Z,81.54
2022-11-23T15:35:01.578Z,81.42
2022-11-23T15:37:37.592Z,81.58
2022-11-23T15:40:14.964Z,81.45
2022-11-23T15:42:49.942Z,81.67
2022-11-23T15:46:01.203Z,81.66
2022-11-23T15:48:37.168Z,81.72
2022-11-23T15:51:26.040Z,81.48
2022-11-23T15:54:01.615Z,81.39
2022-11-23T15:56:37.071Z,81.30
2022-11-23T15:59:18.438Z,81.51
2022-11-23T16:01:51.609Z,81.50
2022-11-23T16:04:31.486Z,81.35
2022-11-23T16:07:19.193Z,81.40
2022-11-23T16:09:56.251Z,81.23
2022-11-23T16:12:33.990Z,81.13
2022-11-23T16:15:49.641Z,81.31
2022-11-23T16:18:27.890Z,81.34
2022-11-23T16:21:05.134Z,81.46
2022-11-23T16:23:44.263Z,81.37
2022-11-23T16:26:18.584Z,81.23
2022-11-23T16:28:54.608Z,81.22
2022-11-23T16:31:33.379Z,81.00
2022-11-23T16:34:11.735Z,80.79
2022-11-23T16:36:44.867Z,80.62
2022-11-23T16:39:18.066Z,80.72
2022-11-23T16:41:51.504Z,80.70
2022-11-23T16:44:24.596Z,80.74
2022-11-23T16:46:59.258Z,80.76
2022-11-23T16:49:32.500Z,80.73
2022-11-23T16:52:06.103Z,80.49
2022-11-23T16:54:39.935Z,80.51
2022-11-23T16:57:19.666Z,80.50
2022-11-23T16:59:53.688Z,80.36
2022-11-23T17:02:27.749Z,80.51
2022-11-23T17:05:01.596Z,80.54
2022-11-23T17:07:35.397Z,80.50
2022-11-23T17:10:10.488Z,80.62
2022-11-23T17:12:47.705Z,80.40
2022-11-23T17:15:23.811Z,80.42
2022-11-23T17:18:03.148Z,80.36
2022-11-23T17:20:38.837Z,80.32
2022-11-23T17:23:13.420Z,80.40
2022-11-23T17:25:47.404Z,80.36
2022-11-23T17:28:22.575Z,80.30
2022-11-23T17:30:56.334Z,80.21
2022-11-23T17:33:33.244Z,80.18
2022-11-23T17:36:09.534Z,80.10
2022-11-23T17:38:44.908Z,79.88
2022-11-23T17:41:19.067Z,79.83
2022-11-23T17:43:55.447Z,79.74
2022-11-23T17:46:33.249Z,79.89
2022-11-23T17:49:10.881Z,79.87
2022-11-23T17:51:44.405Z,79.70
2022-11-23T17:54:19.632Z,79.84
2022-11-23T17:56:56.041Z,79.90
2022-11-23T17:59:29.366Z,79.89
2022-11-23T18:02:03.124Z,79.89
2022-11-23T18:04:38.285Z,79.82
2022-11-23T18:07:15.245Z,79.88
2022-11-23T18:09:49.014Z,79.86
2022-11-23T18:12:22.568Z,79.75
2022-11-23T18:14:58.558Z,79.66
2022-11-23T18:17:32.183Z,79.70
2022-11-23T18:20:08.828Z,79.55
2022-11-23T18:22:42.078Z,79.53
2022-11-23T18:25:15.763Z,79.48
2022-11-23T18:27:49.168Z,79.57
2022-11-23T18:30:22.846Z,79.59
2022-11-23T18:32:56.579Z,79.54
2022-11-23T18:35:30.530Z,79.48
2022-11-23T18:38:04.007Z,79.36
2022-11-23T18:40:37.144Z,79.34
2022-11-23T18:43:10.870Z,79.23
2022-11-23T18:45:44.387Z,79.09
2022-11-23T18:48:17.878Z,79.07
2022-11-23T18:50:51.857Z,78.97
2022-11-23T18:53:25.764Z,78.89
2022-11-23T18:56:00.739Z,79.21
2022-11-23T18:58:36.141Z,79.39
2022-11-23T19:01:13.833Z,79.33
2022-11-23T19:03:48.632Z,79.14
2022-11-23T19:06:24.662Z,79.29
2022-11-23T19:08:58.241Z,79.52
2022-11-23T19:11:32.586Z,79.48
2022-11-23T19:14:06.102Z,79.37
2022-11-23T19:16:39.383Z,79.38
2022-11-23T19:19:14.158Z,79.28
2022-11-23T19:21:48.009Z,79.25
2022-11-23T19:24:21.515Z,79.45
2022-11-23T19:26:55.152Z,79.24
2022-11-23T19:29:28.732Z,79.19
2022-11-23T19:32:02.135Z,79.21
2022-11-23T19:34:35.836Z,79.14
2022-11-23T19:37:09.552Z,79.06
2022-11-23T19:39:43.336Z,79.11
2022-11-23T19:42:16.879Z,79.07
2022-11-23T19:44:52.250Z,78.95
2022-11-23T19:47:25.809Z,78.81
2022-11-23T19:49:59.329Z,78.82
2022-11-23T19:53:03.629Z,78.90
2022-11-23T19:55:11.916Z,78.94
2022-11-23T19:57:45.065Z,78.91
2022-11-23T20:00:20.392Z,78.74
2022-11-23T20:02:54.003Z,78.70
2022-11-23T20:05:27.437Z,78.52
2022-11-23T20:08:02.043Z,78.45
2022-11-23T20:10:35.330Z,78.44
2022-11-23T20:13:09.010Z,78.42
2022-11-23T20:15:44.120Z,78.16
2022-11-23T20:18:18.439Z,78.20
2022-11-23T20:20:52.028Z,78.18
2022-11-23T20:23:25.716Z,78.13
2022-11-23T20:25:59.838Z,78.17
2022-11-23T20:28:33.244Z,78.14
2022-11-23T20:31:08.151Z,78.06
2022-11-23T20:33:41.633Z,78.01
2022-11-23T20:36:18.861Z,78.00
2022-11-23T20:38:52.794Z,77.96
2022-11-23T20:41:27.636Z,77.94
2022-11-23T20:44:03.137Z,77.87
2022-11-23T20:49:12.259Z,78.06
2022-11-23T20:51:45.586Z,77.99
2022-11-23T20:54:19.117Z,77.95
2022-11-23T20:56:52.369Z,77.87
2022-11-23T20:59:25.864Z,77.97
2022-11-23T21:01:59.121Z,77.96
2022-11-23T21:04:33.566Z,77.87
2022-11-23T21:07:07.740Z,77.84
2022-11-23T21:09:41.163Z,77.68
2022-11-23T21:12:32.171Z,77.55
2022-11-23T21:15:06.594Z,77.49
2022-11-23T21:17:40.413Z,77.52
2022-11-23T21:20:14.927Z,77.50
2022-11-23T21:22:48.496Z,77.42
2022-11-23T21:25:22.149Z,77.48
2022-11-23T21:27:55.884Z,77.39
2022-11-23T21:30:29.572Z,77.46
2022-11-23T21:33:03.313Z,77.33
2022-11-23T21:35:38.319Z,77.17
2022-11-23T21:38:11.840Z,77.01
2022-11-23T21:40:45.702Z,77.04
2022-11-23T21:43:19.457Z,77.07
2022-11-23T21:46:00.861Z,77.17
2022-11-23T21:48:34.785Z,77.13
2022-11-23T21:51:10.531Z,77.09
2022-11-23T21:53:44.882Z,77.00
2022-11-23T21:56:19.267Z,76.97
2022-11-23T21:58:53.235Z,76.89
2022-11-23T22:01:28.787Z,76.93
2022-11-23T22:04:04.589Z,76.85
2022-11-23T22:06:37.955Z,76.82
2022-11-23T22:09:12.401Z,76.77
2022-11-23T22:11:46.307Z,76.65
2022-11-23T22:14:20.656Z,76.63
2022-11-23T22:16:56.200Z,76.56
2022-11-23T22:19:29.893Z,76.47
2022-11-23T22:22:04.288Z,76.54
2022-11-23T22:24:37.448Z,76.52
2022-11-23T22:27:11.336Z,76.55
2022-11-23T22:29:44.778Z,76.52
2022-11-23T22:32:18.103Z,76.54
2022-11-23T22:34:51.748Z,76.46
2022-11-23T22:37:25.177Z,76.35
2022-11-23T22:39:58.513Z,76.15
2022-11-23T22:42:31.989Z,76.21
2022-11-23T22:45:05.652Z,76.14
2022-11-23T22:47:38.957Z,76.04
2022-11-23T22:50:12.943Z,75.96
2022-11-23T22:52:46.604Z,75.92
2022-11-23T22:55:20.142Z,76.00
2022-11-23T22:57:53.536Z,76.06
2022-11-23T23:00:26.886Z,76.12
2022-11-23T23:03:00.385Z,76.05
2022-11-23T23:05:33.912Z,76.03
2022-11-23T23:08:08.141Z,76.00
2022-11-23T23:10:41.488Z,75.80
2022-11-23T23:13:14.692Z,75.80
2022-11-23T23:15:48.384Z,75.73
2022-11-23T23:18:21.839Z,75.74
2022-11-23T23:20:56.555Z,75.78
2022-11-23T23:23:29.909Z,75.76
2022-11-23T23:26:03.621Z,75.77
2022-11-23T23:28:37.035Z,75.69
2022-11-23T23:31:12.860Z,75.67
2022-11-23T23:33:46.347Z,75.77
2022-11-23T23:36:21.987Z,75.74
2022-11-23T23:38:55.670Z,75.59
2022-11-23T23:41:29.148Z,75.42
2022-11-23T23:44:02.949Z,75.25
2022-11-23T23:46:36.395Z,75.24
2022-11-23T23:49:09.978Z,75.29
2022-11-23T23:51:47.543Z,75.29
2022-11-23T23:54:19.025Z,75.23
2022-11-23T23:56:52.825Z,75.38
2022-11-23T23:59:26.288Z,75.33
